Time;durP1;ratioP1;P1;durP2;ratioP2;P2;SDS_P1;SDS_P2;PMS_P1;PMS_P2;Temp;Humidity;BMP_temperature;BMP_pressure;BME280_temperature;BME280_humidity;BME280_pressure;Samples;Min_cycle;Max_cycle;Signal;HPM_P1;HPM_P2
2024/01/21 16:08:50;;;;;;;96.82;37.45;;;2.40;99.90;;;;;;5065268;27;20343;-48
2024/01/21 16:11:16;;;;;;;111.05;45.65;;;2.30;99.90;;;;;;5034926;28;20036;-49
2024/01/21 16:13:42;;;;;;;118.32;45.55;;;2.20;99.90;;;;;;5036018;28;20037;-50
2024/01/21 16:16:08;;;;;;;96.70;42.05;;;2.10;99.90;;;;;;5035981;28;20063;-47
2024/01/21 16:18:33;;;;;;;97.75;41.13;;;2.10;99.90;;;;;;5036068;28;20484;-50
2024/01/21 16:21:00;;;;;;;93.32;38.90;;;2.10;99.90;;;;;;5032275;28;20120;-47
2024/01/21 16:23:26;;;;;;;79.88;34.67;;;2.10;99.90;;;;;;5034924;28;20037;-50
2024/01/21 16:25:52;;;;;;;85.00;35.33;;;2.00;99.90;;;;;;5035794;28;20178;-46
2024/01/21 16:28:17;;;;;;;78.28;32.38;;;2.00;99.90;;;;;;5035855;28;20862;-48
2024/01/21 16:30:49;;;;;;;86.95;35.17;;;2.00;99.90;;;;;;5033341;28;20032;-49
2024/01/21 16:33:22;;;;;;;89.72;36.67;;;2.10;99.90;;;;;;5031888;28;20675;-49
2024/01/21 16:35:51;;;;;;;81.03;35.03;;;2.10;99.90;;;;;;5037936;28;20171;-48
2024/01/21 16:38:17;;;;;;;85.00;36.85;;;2.10;99.90;;;;;;5043140;28;20507;-50
2024/01/21 16:40:44;;;;;;;107.57;45.58;;;2.00;99.90;;;;;;5028986;28;20179;-55
2024/01/21 16:43:11;;;;;;;88.25;41.28;;;1.90;99.90;;;;;;5014003;28;20594;-51
2024/01/21 16:45:39;;;;;;;99.65;44.47;;;1.80;99.90;;;;;;5035749;28;20075;-53
2024/01/21 16:48:07;;;;;;;102.70;43.72;;;1.70;99.90;;;;;;5023742;28;20111;-51
2024/01/21 16:50:34;;;;;;;100.90;44.28;;;1.80;99.90;;;;;;5025883;28;20028;-51
2024/01/21 16:53:14;;;;;;;104.65;44.20;;;1.80;99.90;;;;;;5031838;28;20036;-50
2024/01/21 16:55:42;;;;;;;105.82;41.97;;;1.80;99.90;;;;;;5033068;28;20047;-52
2024/01/21 16:58:08;;;;;;;98.90;41.65;;;1.80;99.90;;;;;;5035064;28;20407;-50
2024/01/21 17:00:42;;;;;;;105.50;45.70;;;1.80;99.90;;;;;;5032616;28;20043;-50
2024/01/21 17:03:09;;;;;;;93.85;41.95;;;1.70;99.90;;;;;;5035291;28;21068;-50
2024/01/21 17:05:35;;;;;;;103.75;42.95;;;1.60;99.90;;;;;;5035605;28;20377;-52
2024/01/21 17:08:01;;;;;;;101.07;42.83;;;1.70;99.90;;;;;;5047774;28;20113;-52
2024/01/21 17:10:33;;;;;;;108.55;47.72;;;1.80;99.90;;;;;;5053867;28;20039;-48
2024/01/21 17:12:59;;;;;;;94.72;42.85;;;1.90;99.90;;;;;;5054994;28;20138;-47
2024/01/21 17:15:25;;;;;;;92.55;41.95;;;1.90;99.90;;;;;;5053209;28;20040;-47
2024/01/21 17:17:56;;;;;;;88.75;39.45;;;1.70;99.90;;;;;;5041130;28;20031;-50
2024/01/21 17:20:22;;;;;;;93.63;43.45;;;1.60;99.90;;;;;;5036574;28;20429;-49
2024/01/21 17:22:48;;;;;;;83.00;37.65;;;1.50;99.90;;;;;;5040332;28;20036;-50
2024/01/21 17:25:13;;;;;;;87.45;36.67;;;1.60;99.90;;;;;;5040791;28;20224;-50
2024/01/21 17:27:39;;;;;;;73.90;35.00;;;1.50;99.90;;;;;;5039939;28;20029;-48
2024/01/21 17:30:05;;;;;;;84.13;34.97;;;1.40;99.90;;;;;;5025393;28;20423;-47
2024/01/21 17:32:32;;;;;;;75.82;36.13;;;1.40;99.90;;;;;;5037073;28;20043;-47
2024/01/21 17:34:58;;;;;;;88.82;38.45;;;1.30;99.90;;;;;;5040629;28;20361;-51
2024/01/21 17:37:23;;;;;;;71.35;34.13;;;1.40;99.90;;;;;;5040043;28;20082;-50
2024/01/21 17:39:49;;;;;;;79.85;36.60;;;1.40;99.90;;;;;;5041698;28;20039;-53
2024/01/21 17:42:14;;;;;;;81.22;37.65;;;1.40;99.90;;;;;;5037686;28;20028;-47
2024/01/21 17:44:40;;;;;;;108.63;46.17;;;1.40;99.90;;;;;;5040365;28;20040;-51
2024/01/21 17:47:06;;;;;;;100.07;42.72;;;1.40;99.90;;;;;;5042340;28;20483;-47
2024/01/21 17:49:32;;;;;;;106.63;46.63;;;1.40;99.90;;;;;;5039403;28;20067;-49
2024/01/21 17:51:59;;;;;;;104.47;46.00;;;1.30;99.90;;;;;;5039057;28;20029;-49
2024/01/21 17:54:25;;;;;;;101.50;47.05;;;1.10;99.90;;;;;;5043073;28;20044;-49
2024/01/21 17:56:51;;;;;;;130.65;50.92;;;1.10;99.90;;;;;;5039375;28;20028;-51
2024/01/21 17:59:18;;;;;;;118.63;50.95;;;1.10;99.90;;;;;;5040059;28;20067;-49
2024/01/21 18:01:43;;;;;;;107.40;48.72;;;1.00;99.90;;;;;;5038063;28;20169;-52
2024/01/21 18:04:09;;;;;;;117.22;50.13;;;1.00;99.90;;;;;;5039306;28;20543;-51
2024/01/21 18:06:35;;;;;;;111.43;51.75;;;1.00;99.90;;;;;;5039520;28;20044;-52
2024/01/21 18:09:01;;;;;;;127.88;50.38;;;1.20;99.90;;;;;;5002934;28;21530;-48
2024/01/21 18:11:28;;;;;;;118.38;50.42;;;1.20;99.90;;;;;;4996913;28;20067;-48
2024/01/21 18:13:54;;;;;;;112.10;50.85;;;1.20;99.90;;;;;;5001290;28;20499;-50
2024/01/21 18:16:22;;;;;;;114.20;48.10;;;1.20;99.90;;;;;;4999828;28;20057;-49
2024/01/21 18:18:51;;;;;;;111.82;48.70;;;1.10;99.90;;;;;;5000523;28;20806;-51
2024/01/21 18:21:17;;;;;;;106.38;48.35;;;1.30;99.90;;;;;;5000624;28;20033;-48
2024/01/21 18:23:46;;;;;;;97.43;47.27;;;1.30;99.90;;;;;;5001232;28;20124;-51
2024/01/21 18:26:11;;;;;;;96.30;43.88;;;1.30;99.90;;;;;;5000415;28;20053;-49
2024/01/21 18:28:37;;;;;;;95.15;47.45;;;1.40;99.90;;;;;;5015261;28;20179;-49
2024/01/21 18:31:03;;;;;;;87.83;41.20;;;1.40;99.90;;;;;;5020326;28;20040;-51
2024/01/21 18:33:30;;;;;;;83.88;38.30;;;1.30;99.90;;;;;;4987489;28;20033;-47
2024/01/21 18:35:58;;;;;;;74.60;36.43;;;1.40;99.90;;;;;;5020250;28;20133;-49
2024/01/21 18:38:23;;;;;;;91.78;41.45;;;1.30;99.90;;;;;;5020106;28;20027;-51
2024/01/21 18:40:49;;;;;;;94.28;44.30;;;1.10;99.90;;;;;;5038595;28;20112;-49
2024/01/21 18:43:15;;;;;;;102.82;48.83;;;1.10;99.90;;;;;;5043611;28;20056;-50
2024/01/21 18:45:40;;;;;;;122.85;49.63;;;1.00;99.90;;;;;;5027302;28;20053;-48
2024/01/21 18:48:07;;;;;;;105.45;46.45;;;1.00;99.90;;;;;;5027597;28;20045;-49
2024/01/21 18:50:32;;;;;;;101.72;46.00;;;0.80;99.90;;;;;;5009649;28;20029;-49
2024/01/21 18:52:58;;;;;;;118.55;50.45;;;0.70;99.90;;;;;;5026784;28;20519;-50
2024/01/21 18:55:24;;;;;;;109.00;48.58;;;0.60;99.90;;;;;;5026054;28;20535;-49
2024/01/21 18:57:50;;;;;;;100.22;42.53;;;0.60;99.90;;;;;;5024178;28;20476;-52
2024/01/21 19:00:15;;;;;;;99.95;43.28;;;0.70;99.90;;;;;;5009683;28;20040;-47
2024/01/21 19:02:41;;;;;;;87.03;37.17;;;0.60;99.90;;;;;;5027555;28;20395;-49
2024/01/21 19:05:07;;;;;;;86.00;34.80;;;0.70;99.90;;;;;;5027935;28;20033;-47
2024/01/21 19:07:32;;;;;;;86.40;35.58;;;0.70;99.90;;;;;;5020896;28;20064;-48
2024/01/21 19:09:58;;;;;;;65.93;31.42;;;0.80;99.90;;;;;;5043277;28;20025;-48
2024/01/21 19:12:26;;;;;;;58.40;27.88;;;0.90;99.90;;;;;;5042671;28;20031;-46
2024/01/21 19:14:51;;;;;;;65.78;28.83;;;0.90;99.90;;;;;;5047229;28;20062;-50
2024/01/21 19:17:17;;;;;;;64.25;27.05;;;1.00;99.90;;;;;;5047376;28;20027;-48
2024/01/21 19:19:43;;;;;;;55.65;24.55;;;1.00;99.90;;;;;;5047059;28;20127;-50
2024/01/21 19:22:09;;;;;;;49.40;22.95;;;1.00;99.90;;;;;;5047386;28;20048;-49
2024/01/21 19:24:35;;;;;;;47.20;21.70;;;1.10;99.90;;;;;;5046625;28;20036;-49
2024/01/21 19:27:01;;;;;;;47.50;22.52;;;1.20;99.90;;;;;;5052549;28;20488;-49
2024/01/21 19:29:27;;;;;;;48.58;21.80;;;1.20;99.90;;;;;;5057166;28;20115;-51
2024/01/21 19:31:52;;;;;;;58.80;22.95;;;1.20;99.90;;;;;;5056088;28;20502;-49
2024/01/21 19:34:18;;;;;;;62.85;26.02;;;1.10;99.90;;;;;;5053877;28;20028;-49
2024/01/21 19:36:45;;;;;;;53.40;23.42;;;1.10;99.90;;;;;;5057982;28;20047;-47
2024/01/21 19:39:11;;;;;;;52.97;22.48;;;1.10;99.90;;;;;;5055298;28;20123;-47
2024/01/21 19:41:36;;;;;;;51.63;23.15;;;1.10;99.90;;;;;;5056084;28;20098;-49
2024/01/21 19:44:02;;;;;;;47.63;22.63;;;1.10;99.90;;;;;;5055489;28;20423;-50
2024/01/21 19:46:28;;;;;;;53.60;23.35;;;1.10;99.90;;;;;;5055258;28;20032;-48
2024/01/21 19:48:54;;;;;;;50.67;23.58;;;1.10;99.90;;;;;;5056786;28;20463;-50
2024/01/21 19:51:23;;;;;;;53.40;24.13;;;1.00;99.90;;;;;;5054685;28;20086;-50
2024/01/21 19:53:50;;;;;;;68.72;29.35;;;1.00;99.90;;;;;;5046145;28;20099;-48
2024/01/21 19:56:15;;;;;;;81.28;27.88;;;0.90;99.90;;;;;;5046284;28;21710;-49
2024/01/21 19:58:41;;;;;;;81.10;29.98;;;0.80;99.90;;;;;;5045198;28;20121;-50
2024/01/21 20:01:07;;;;;;;63.03;25.60;;;0.90;99.90;;;;;;5046746;28;20419;-49
2024/01/21 20:03:32;;;;;;;58.20;25.85;;;0.80;99.90;;;;;;5046049;28;20075;-47
2024/01/21 20:05:58;;;;;;;57.80;25.98;;;0.70;99.90;;;;;;5046928;28;20025;-49
2024/01/21 20:08:24;;;;;;;58.58;25.75;;;0.70;99.90;;;;;;5031574;28;20148;-46
2024/01/21 20:10:51;;;;;;;56.42;23.77;;;0.60;99.90;;;;;;5026810;28;20046;-50
2024/01/21 20:13:17;;;;;;;49.47;24.05;;;0.60;99.90;;;;;;5026657;28;20025;-51
2024/01/21 20:15:43;;;;;;;46.15;21.52;;;0.60;99.90;;;;;;5043494;28;20037;-49
2024/01/21 20:18:08;;;;;;;51.03;21.65;;;0.50;99.90;;;;;;5046504;28;20724;-48
2024/01/21 20:20:34;;;;;;;44.67;20.75;;;0.50;99.90;;;;;;5029008;28;20113;-50
2024/01/21 20:23:00;;;;;;;46.50;20.50;;;0.50;99.90;;;;;;5035693;28;20518;-47
2024/01/21 20:25:26;;;;;;;45.40;20.60;;;0.50;99.90;;;;;;5030157;28;20366;-48
2024/01/21 20:27:55;;;;;;;48.72;21.70;;;0.50;99.90;;;;;;5026446;28;20041;-49
2024/01/21 20:30:21;;;;;;;55.05;20.75;;;0.50;99.90;;;;;;5026343;28;20069;-47
2024/01/21 20:32:47;;;;;;;47.03;21.07;;;0.50;99.90;;;;;;5026872;28;20021;-47
2024/01/21 20:35:13;;;;;;;58.47;23.88;;;0.50;99.90;;;;;;5026630;28;20298;-47
2024/01/21 20:37:42;;;;;;;75.30;27.15;;;0.40;99.90;;;;;;5026265;28;20877;-49
2024/01/21 20:40:08;;;;;;;67.55;27.52;;;0.50;99.90;;;;;;5031862;28;20068;-47
2024/01/21 20:42:34;;;;;;;49.30;20.63;;;0.40;99.90;;;;;;5026567;28;20057;-47
2024/01/21 20:45:01;;;;;;;50.78;20.20;;;0.50;99.90;;;;;;5008026;28;20025;-50
2024/01/21 20:47:27;;;;;;;60.05;20.60;;;0.50;99.90;;;;;;5006556;28;20042;-48
2024/01/21 20:49:53;;;;;;;59.22;22.90;;;0.40;99.90;;;;;;5016284;28;20434;-50
2024/01/21 20:52:19;;;;;;;62.38;21.65;;;0.40;99.90;;;;;;5024948;28;20026;-48
2024/01/21 20:54:46;;;;;;;41.15;16.95;;;0.40;99.90;;;;;;5028488;28;20052;-49
2024/01/21 20:57:12;;;;;;;;;;;0.30;99.90;;;;;;5031016;28;20061;-48
2024/01/21 20:59:38;;;;;;;41.38;17.65;;;0.30;99.90;;;;;;5029692;28;20003;-48
2024/01/21 21:02:04;;;;;;;51.80;21.05;;;0.20;99.90;;;;;;5029845;28;20562;-50
2024/01/21 21:04:30;;;;;;;50.70;19.35;;;0.10;99.90;;;;;;5013255;28;20126;-50
2024/01/21 21:06:56;;;;;;;51.17;19.70;;;0.10;99.90;;;;;;5009084;28;20100;-48
2024/01/21 21:09:22;;;;;;;49.90;19.70;;;0.10;99.90;;;;;;5042813;28;20032;-49
2024/01/21 21:11:47;;;;;;;45.83;19.15;;;0.10;99.90;;;;;;5040723;28;20024;-48
2024/01/21 21:14:14;;;;;;;42.45;17.65;;;0.00;99.90;;;;;;5042365;28;20029;-49
2024/01/21 21:16:40;;;;;;;36.78;15.98;;;0.00;99.90;;;;;;5043039;28;20044;-51
2024/01/21 21:19:06;;;;;;;42.75;16.45;;;0.10;99.90;;;;;;5040626;28;22012;-46
2024/01/21 21:21:31;;;;;;;40.63;15.18;;;0.10;99.90;;;;;;5042572;28;20051;-48
2024/01/21 21:23:58;;;;;;;37.45;14.18;;;0.10;99.90;;;;;;5042223;28;20028;-48
2024/01/21 21:26:24;;;;;;;41.97;13.77;;;0.20;99.90;;;;;;5043153;28;20372;-52
2024/01/21 21:28:50;;;;;;;31.48;13.00;;;0.20;99.90;;;;;;5041042;28;20247;-50
2024/01/21 21:31:16;;;;;;;32.40;11.57;;;0.30;99.90;;;;;;5042108;28;20040;-50
2024/01/21 21:33:44;;;;;;;30.70;12.32;;;0.30;99.90;;;;;;5042261;28;20067;-50
2024/01/21 21:36:10;;;;;;;30.42;11.50;;;0.40;99.90;;;;;;5041895;28;20048;-50
2024/01/21 21:38:35;;;;;;;28.25;10.93;;;0.50;99.90;;;;;;5041169;28;20086;-52
2024/01/21 21:41:03;;;;;;;29.05;10.65;;;0.60;99.90;;;;;;5043000;28;20119;-49
2024/01/21 21:43:28;;;;;;;34.28;10.77;;;0.50;99.90;;;;;;5042394;28;20384;-49
2024/01/21 21:45:54;;;;;;;34.53;11.02;;;0.60;99.90;;;;;;5044579;28;20911;-49
2024/01/21 21:48:19;;;;;;;25.80;9.30;;;0.60;99.90;;;;;;5039558;28;20289;-51
2024/01/21 21:50:45;;;;;;;25.75;10.23;;;0.70;99.90;;;;;;5042567;28;20036;-51
2024/01/21 21:53:11;;;;;;;33.15;11.82;;;0.70;99.90;;;;;;5042282;28;20021;-46
2024/01/21 21:55:36;;;;;;;53.05;17.15;;;0.80;99.50;;;;;;5042095;28;20024;-49
2024/01/21 21:58:03;;;;;;;39.30;15.18;;;0.80;99.60;;;;;;5038373;28;21847;-48
2024/01/21 22:00:28;;;;;;;39.77;12.40;;;0.70;99.60;;;;;;5041551;28;20032;-49
2024/01/21 22:02:55;;;;;;;77.93;22.05;;;0.70;99.40;;;;;;5041424;28;20275;-51
2024/01/21 22:05:20;;;;;;;48.25;14.80;;;0.70;99.30;;;;;;5042106;28;20056;-48
2024/01/21 22:07:46;;;;;;;59.13;17.20;;;0.80;99.10;;;;;;5038245;28;20143;-50
2024/01/21 22:10:12;;;;;;;42.30;13.75;;;0.80;99.10;;;;;;5041636;28;20032;-48
2024/01/21 22:12:37;;;;;;;42.47;13.80;;;0.70;99.60;;;;;;5040524;28;20029;-49
2024/01/21 22:15:04;;;;;;;49.60;15.57;;;0.70;99.70;;;;;;5041637;28;20044;-51
2024/01/21 22:17:29;;;;;;;44.05;13.35;;;0.70;99.50;;;;;;5039474;28;20059;-48
2024/01/21 22:19:55;;;;;;;40.20;14.40;;;0.70;99.80;;;;;;5041875;28;20912;-48
2024/01/21 22:22:21;;;;;;;35.22;11.15;;;0.60;99.90;;;;;;5041215;28;20575;-51
2024/01/21 22:24:46;;;;;;;33.67;11.52;;;0.60;99.90;;;;;;5041264;28;20110;-50
2024/01/21 22:27:13;;;;;;;31.73;10.55;;;0.50;99.90;;;;;;5039518;28;20400;-49
2024/01/21 22:29:39;;;;;;;25.25;10.07;;;0.40;99.90;;;;;;5040845;28;20499;-53
2024/01/21 22:32:06;;;;;;;27.65;9.90;;;0.30;99.90;;;;;;5041370;28;20034;-47
2024/01/21 22:34:32;;;;;;;24.52;9.85;;;0.30;99.90;;;;;;5040397;28;20120;-49
2024/01/21 22:36:57;;;;;;;24.52;9.30;;;0.30;99.90;;;;;;5021643;28;20510;-50
2024/01/21 22:39:23;;;;;;;22.45;8.80;;;0.30;99.90;;;;;;5040900;28;20907;-50
2024/01/21 22:41:49;;;;;;;21.70;8.73;;;0.30;99.90;;;;;;5040829;28;20698;-47
2024/01/21 22:44:14;;;;;;;25.38;9.10;;;0.20;99.90;;;;;;5041002;28;20036;-47
2024/01/21 22:46:40;;;;;;;21.48;9.25;;;0.20;99.90;;;;;;5040760;28;20028;-47
2024/01/21 22:49:05;;;;;;;23.38;8.23;;;0.20;99.90;;;;;;5038784;28;20024;-49
2024/01/21 22:51:31;;;;;;;26.23;10.48;;;0.20;99.90;;;;;;5041050;28;20048;-49
2024/01/21 22:53:57;;;;;;;26.75;9.45;;;0.20;99.90;;;;;;5040692;28;20652;-47
2024/01/21 22:56:22;;;;;;;21.95;9.35;;;0.20;99.90;;;;;;5040241;28;20028;-48
2024/01/21 22:58:49;;;;;;;25.38;10.02;;;0.20;99.90;;;;;;5039842;28;21664;-50
2024/01/21 23:01:15;;;;;;;25.65;9.65;;;0.10;99.90;;;;;;5040621;28;20035;-49
2024/01/21 23:03:41;;;;;;;30.63;9.63;;;0.10;99.90;;;;;;5040271;28;20029;-50
2024/01/21 23:06:09;;;;;;;29.85;10.95;;;0.10;99.90;;;;;;5041048;28;20036;-48
2024/01/21 23:08:35;;;;;;;28.30;10.38;;;0.10;99.90;;;;;;5007184;28;20428;-49
2024/01/21 23:11:01;;;;;;;26.50;10.40;;;0.10;99.90;;;;;;5001432;28;20029;-47
2024/01/21 23:13:27;;;;;;;22.02;9.45;;;0.10;99.90;;;;;;5001944;28;20053;-50
2024/01/21 23:15:56;;;;;;;24.27;9.18;;;0.10;99.90;;;;;;5001125;28;20132;-52
